Archival Weather

Snohomish County (Paine Fld)

Everett, Washington (KPAE)

Report from: Sunday, November 19, 2023 11:58 AM PST
Current time: Monday, June 17, 2024 12:09 AM PDT

Current weather – Weather history – Daily summaries
Weather forecast

Temperature8.9°C (48.0°F)
Wind chill7.9°C (46.2°F)
Dew point3.3°C (37.9°F)
Winds 4 kts (2.1 m/s, 4.6 mph) Vrb
Winds variableWinds variable
Visibility10 mi. (16.1 km)
Clouds Scattered clouds 2,500 ft. (762 m)
Ceiling: Broken clouds 4,200 ft. (1,280 m)
Overcast 7,000 ft. (2,134 m)
Altimeter30.28 in.Hg (1025 mB)
Relative humidity68 %
Density altitude-1,027 ft. (-313 m)
Remarks Automated weather observing station with precipitation discriminator
Flight conditions Visual Meteorological Conditions
Raw dataKPAE 191958Z VRB04KT 10SM SCT025 BKN042 OVC070 09/03 A3028 RMK AO2 T00890033
An error has occurred. This application may no longer respond until reloaded. Reload 🗙